sensor_id;sensor_type;location;lat;lon;timestamp;temperature;humidity
16118;DHT22;8163;50.118;5.342;2023-03-12T00:00:23;3.70;97.50
16118;DHT22;8163;50.118;5.342;2023-03-12T00:02:50;3.60;97.40
16118;DHT22;8163;50.118;5.342;2023-03-12T00:05:17;3.60;97.50
16118;DHT22;8163;50.118;5.342;2023-03-12T00:07:45;3.60;97.50
16118;DHT22;8163;50.118;5.342;2023-03-12T00:10:12;3.60;97.60
16118;DHT22;8163;50.118;5.342;2023-03-12T00:12:39;3.70;97.60
16118;DHT22;8163;50.118;5.342;2023-03-12T00:15:08;3.60;97.50
16118;DHT22;8163;50.118;5.342;2023-03-12T00:17:36;3.60;97.40
16118;DHT22;8163;50.118;5.342;2023-03-12T00:20:03;3.60;97.30
16118;DHT22;8163;50.118;5.342;2023-03-12T00:22:31;3.60;97.30
16118;DHT22;8163;50.118;5.342;2023-03-12T00:24:59;3.60;97.20
16118;DHT22;8163;50.118;5.342;2023-03-12T00:27:27;3.60;97.50
16118;DHT22;8163;50.118;5.342;2023-03-12T00:30:00;3.60;97.40
16118;DHT22;8163;50.118;5.342;2023-03-12T00:32:28;3.60;97.50
16118;DHT22;8163;50.118;5.342;2023-03-12T00:34:55;3.60;97.90
16118;DHT22;8163;50.118;5.342;2023-03-12T00:37:24;3.50;97.60
16118;DHT22;8163;50.118;5.342;2023-03-12T00:39:51;3.50;97.70
16118;DHT22;8163;50.118;5.342;2023-03-12T00:42:19;3.50;97.80
16118;DHT22;8163;50.118;5.342;2023-03-12T00:44:45;3.50;97.90
16118;DHT22;8163;50.118;5.342;2023-03-12T00:47:12;3.50;97.80
16118;DHT22;8163;50.118;5.342;2023-03-12T00:49:41;3.50;97.90
16118;DHT22;8163;50.118;5.342;2023-03-12T00:52:09;3.50;98.30
16118;DHT22;8163;50.118;5.342;2023-03-12T00:54:36;3.50;98.10
16118;DHT22;8163;50.118;5.342;2023-03-12T00:57:03;3.50;98.20
16118;DHT22;8163;50.118;5.342;2023-03-12T00:59:30;3.50;98.50
16118;DHT22;8163;50.118;5.342;2023-03-12T01:01:57;3.50;98.60
16118;DHT22;8163;50.118;5.342;2023-03-12T01:04:24;3.40;98.70
16118;DHT22;8163;50.118;5.342;2023-03-12T01:06:54;3.50;98.90
16118;DHT22;8163;50.118;5.342;2023-03-12T01:09:21;3.50;99.00
16118;DHT22;8163;50.118;5.342;2023-03-12T01:11:48;3.40;99.10
16118;DHT22;8163;50.118;5.342;2023-03-12T01:14:15;3.40;99.10
16118;DHT22;8163;50.118;5.342;2023-03-12T01:16:41;3.30;99.10
16118;DHT22;8163;50.118;5.342;2023-03-12T01:19:08;3.20;99.00
16118;DHT22;8163;50.118;5.342;2023-03-12T01:21:36;3.20;99.20
16118;DHT22;8163;50.118;5.342;2023-03-12T01:24:06;3.10;99.60
16118;DHT22;8163;50.118;5.342;2023-03-12T01:26:33;3.00;99.60
16118;DHT22;8163;50.118;5.342;2023-03-12T01:29:00;3.00;99.90
16118;DHT22;8163;50.118;5.342;2023-03-12T01:31:26;3.00;99.90
16118;DHT22;8163;50.118;5.342;2023-03-12T01:33:54;3.00;99.90
16118;DHT22;8163;50.118;5.342;2023-03-12T01:36:27;3.00;99.90
16118;DHT22;8163;50.118;5.342;2023-03-12T01:38:58;2.90;99.90
16118;DHT22;8163;50.118;5.342;2023-03-12T01:41:29;2.80;99.90
16118;DHT22;8163;50.118;5.342;2023-03-12T01:44:01;2.80;99.90
16118;DHT22;8163;50.118;5.342;2023-03-12T01:46:33;2.80;99.90
16118;DHT22;8163;50.118;5.342;2023-03-12T01:49:05;2.80;99.90
16118;DHT22;8163;50.118;5.342;2023-03-12T01:51:37;2.80;99.90
16118;DHT22;8163;50.118;5.342;2023-03-12T01:54:09;2.70;99.90
16118;DHT22;8163;50.118;5.342;2023-03-12T01:56:40;2.70;99.90
16118;DHT22;8163;50.118;5.342;2023-03-12T01:59:12;2.80;99.90
16118;DHT22;8163;50.118;5.342;2023-03-12T02:01:41;2.70;99.90
16118;DHT22;8163;50.118;5.342;2023-03-12T02:04:09;2.70;99.90
16118;DHT22;8163;50.118;5.342;2023-03-12T02:06:41;2.70;99.90
16118;DHT22;8163;50.118;5.342;2023-03-12T02:09:10;2.70;99.90
16118;DHT22;8163;50.118;5.342;2023-03-12T02:11:43;2.70;99.90
16118;DHT22;8163;50.118;5.342;2023-03-12T02:14:11;2.70;99.90
16118;DHT22;8163;50.118;5.342;2023-03-12T02:16:39;2.70;99.90
16118;DHT22;8163;50.118;5.342;2023-03-12T02:19:17;2.70;99.90
16118;DHT22;8163;50.118;5.342;2023-03-12T02:21:48;2.80;99.90
16118;DHT22;8163;50.118;5.342;2023-03-12T02:24:24;2.80;99.90
16118;DHT22;8163;50.118;5.342;2023-03-12T02:26:54;2.80;99.90
16118;DHT22;8163;50.118;5.342;2023-03-12T02:29:26;2.80;99.90
16118;DHT22;8163;50.118;5.342;2023-03-12T02:31:55;2.90;99.90
16118;DHT22;8163;50.118;5.342;2023-03-12T02:34:23;2.90;99.90
16118;DHT22;8163;50.118;5.342;2023-03-12T02:36:50;3.00;99.90
16118;DHT22;8163;50.118;5.342;2023-03-12T02:39:17;3.00;99.90
16118;DHT22;8163;50.118;5.342;2023-03-12T02:41:46;3.00;99.90
16118;DHT22;8163;50.118;5.342;2023-03-12T02:44:18;3.00;99.90
16118;DHT22;8163;50.118;5.342;2023-03-12T02:46:47;3.00;99.90
16118;DHT22;8163;50.118;5.342;2023-03-12T02:49:16;3.00;99.90
16118;DHT22;8163;50.118;5.342;2023-03-12T02:51:44;3.00;99.90
16118;DHT22;8163;50.118;5.342;2023-03-12T02:54:13;2.90;99.90
16118;DHT22;8163;50.118;5.342;2023-03-12T02:56:40;2.90;99.90
16118;DHT22;8163;50.118;5.342;2023-03-12T02:59:10;2.90;99.90
16118;DHT22;8163;50.118;5.342;2023-03-12T03:01:39;2.90;99.90
16118;DHT22;8163;50.118;5.342;2023-03-12T03:04:08;3.00;99.90
16118;DHT22;8163;50.118;5.342;2023-03-12T03:06:38;2.90;99.90
16118;DHT22;8163;50.118;5.342;2023-03-12T03:09:11;3.00;99.90
16118;DHT22;8163;50.118;5.342;2023-03-12T03:11:39;3.00;99.90
16118;DHT22;8163;50.118;5.342;2023-03-12T03:14:06;3.00;99.90
16118;DHT22;8163;50.118;5.342;2023-03-12T03:16:34;3.00;99.90
16118;DHT22;8163;50.118;5.342;2023-03-12T03:19:03;3.00;99.90
16118;DHT22;8163;50.118;5.342;2023-03-12T03:21:32;3.00;99.90
16118;DHT22;8163;50.118;5.342;2023-03-12T03:23:59;3.00;99.90
16118;DHT22;8163;50.118;5.342;2023-03-12T03:26:26;3.00;99.90
16118;DHT22;8163;50.118;5.342;2023-03-12T03:28:53;3.00;99.90
16118;DHT22;8163;50.118;5.342;2023-03-12T03:31:20;3.00;99.90
16118;DHT22;8163;50.118;5.342;2023-03-12T03:33:53;3.00;99.90
16118;DHT22;8163;50.118;5.342;2023-03-12T03:36:22;3.00;99.90
16118;DHT22;8163;50.118;5.342;2023-03-12T03:38:49;3.00;99.90
16118;DHT22;8163;50.118;5.342;2023-03-12T03:41:16;3.00;99.90
16118;DHT22;8163;50.118;5.342;2023-03-12T03:43:45;3.00;99.90
16118;DHT22;8163;50.118;5.342;2023-03-12T03:46:13;3.00;99.90
16118;DHT22;8163;50.118;5.342;2023-03-12T03:48:40;3.10;99.90
16118;DHT22;8163;50.118;5.342;2023-03-12T03:51:10;3.10;99.90
16118;DHT22;8163;50.118;5.342;2023-03-12T03:53:39;3.10;99.90
16118;DHT22;8163;50.118;5.342;2023-03-12T03:56:09;3.10;99.90
16118;DHT22;8163;50.118;5.342;2023-03-12T03:58:42;3.10;99.90
16118;DHT22;8163;50.118;5.342;2023-03-12T04:01:11;3.10;99.90
16118;DHT22;8163;50.118;5.342;2023-03-12T04:03:39;3.10;99.90
16118;DHT22;8163;50.118;5.342;2023-03-12T04:06:06;3.20;99.90
16118;DHT22;8163;50.118;5.342;2023-03-12T04:08:34;3.20;99.90
16118;DHT22;8163;50.118;5.342;2023-03-12T04:11:07;3.20;99.90
16118;DHT22;8163;50.118;5.342;2023-03-12T04:13:35;3.20;99.90
16118;DHT22;8163;50.118;5.342;2023-03-12T04:16:04;3.20;99.90
16118;DHT22;8163;50.118;5.342;2023-03-12T04:18:31;3.20;99.90
16118;DHT22;8163;50.118;5.342;2023-03-12T04:20:58;3.20;99.90
16118;DHT22;8163;50.118;5.342;2023-03-12T04:23:25;3.20;99.90
16118;DHT22;8163;50.118;5.342;2023-03-12T04:25:52;3.30;99.90
16118;DHT22;8163;50.118;5.342;2023-03-12T04:28:20;3.30;99.90
16118;DHT22;8163;50.118;5.342;2023-03-12T04:30:54;3.30;99.90
16118;DHT22;8163;50.118;5.342;2023-03-12T04:33:21;3.30;99.90
16118;DHT22;8163;50.118;5.342;2023-03-12T04:35:50;3.30;99.90
16118;DHT22;8163;50.118;5.342;2023-03-12T04:38:17;3.30;99.90
16118;DHT22;8163;50.118;5.342;2023-03-12T04:40:44;3.30;99.90
16118;DHT22;8163;50.118;5.342;2023-03-12T04:43:11;3.40;99.90
16118;DHT22;8163;50.118;5.342;2023-03-12T04:45:40;3.40;99.90
16118;DHT22;8163;50.118;5.342;2023-03-12T04:48:07;3.40;99.90
16118;DHT22;8163;50.118;5.342;2023-03-12T04:50:36;3.40;99.90
16118;DHT22;8163;50.118;5.342;2023-03-12T04:53:05;3.40;99.90
16118;DHT22;8163;50.118;5.342;2023-03-12T04:55:32;3.40;99.90
16118;DHT22;8163;50.118;5.342;2023-03-12T04:58:00;3.40;99.90
16118;DHT22;8163;50.118;5.342;2023-03-12T05:00:28;3.40;99.90
16118;DHT22;8163;50.118;5.342;2023-03-12T05:02:57;3.50;99.90
16118;DHT22;8163;50.118;5.342;2023-03-12T05:05:25;3.40;99.90
16118;DHT22;8163;50.118;5.342;2023-03-12T05:07:52;3.50;99.90
16118;DHT22;8163;50.118;5.342;2023-03-12T05:10:19;3.50;99.90
16118;DHT22;8163;50.118;5.342;2023-03-12T05:12:48;3.50;99.90
16118;DHT22;8163;50.118;5.342;2023-03-12T05:15:15;3.50;99.90
16118;DHT22;8163;50.118;5.342;2023-03-12T05:17:43;3.40;99.90
16118;DHT22;8163;50.118;5.342;2023-03-12T05:20:12;3.40;99.90
16118;DHT22;8163;50.118;5.342;2023-03-12T05:22:39;3.40;99.90
16118;DHT22;8163;50.118;5.342;2023-03-12T05:25:06;3.40;99.90
16118;DHT22;8163;50.118;5.342;2023-03-12T05:27:35;3.40;99.90
16118;DHT22;8163;50.118;5.342;2023-03-12T05:30:02;3.40;99.90
16118;DHT22;8163;50.118;5.342;2023-03-12T05:32:29;3.40;99.90
16118;DHT22;8163;50.118;5.342;2023-03-12T05:34:56;3.40;99.90
16118;DHT22;8163;50.118;5.342;2023-03-12T05:37:24;3.40;99.90
16118;DHT22;8163;50.118;5.342;2023-03-12T05:39:53;3.40;99.90
16118;DHT22;8163;50.118;5.342;2023-03-12T05:42:20;3.40;99.90
16118;DHT22;8163;50.118;5.342;2023-03-12T05:44:47;3.50;99.90
16118;DHT22;8163;50.118;5.342;2023-03-12T05:47:14;3.50;99.90
16118;DHT22;8163;50.118;5.342;2023-03-12T05:49:41;3.50;99.90
16118;DHT22;8163;50.118;5.342;2023-03-12T05:52:10;3.50;99.90
16118;DHT22;8163;50.118;5.342;2023-03-12T05:54:41;3.50;99.90
16118;DHT22;8163;50.118;5.342;2023-03-12T05:57:11;3.50;99.90
16118;DHT22;8163;50.118;5.342;2023-03-12T05:59:38;3.50;99.90
16118;DHT22;8163;50.118;5.342;2023-03-12T06:02:05;3.50;99.90
16118;DHT22;8163;50.118;5.342;2023-03-12T06:04:34;3.50;99.90
16118;DHT22;8163;50.118;5.342;2023-03-12T06:07:01;3.60;99.90
16118;DHT22;8163;50.118;5.342;2023-03-12T06:09:28;3.60;99.90
16118;DHT22;8163;50.118;5.342;2023-03-12T06:11:56;3.60;99.90
16118;DHT22;8163;50.118;5.342;2023-03-12T06:14:23;3.60;99.90
16118;DHT22;8163;50.118;5.342;2023-03-12T06:16:50;3.70;99.90
16118;DHT22;8163;50.118;5.342;2023-03-12T06:19:17;3.70;99.90
16118;DHT22;8163;50.118;5.342;2023-03-12T06:21:45;3.70;99.90
16118;DHT22;8163;50.118;5.342;2023-03-12T06:24:12;3.70;99.90
16118;DHT22;8163;50.118;5.342;2023-03-12T06:26:39;3.80;99.90
16118;DHT22;8163;50.118;5.342;2023-03-12T06:29:08;3.80;99.90
16118;DHT22;8163;50.118;5.342;2023-03-12T06:31:36;3.80;99.90
16118;DHT22;8163;50.118;5.342;2023-03-12T06:34:04;3.80;99.90
16118;DHT22;8163;50.118;5.342;2023-03-12T06:36:31;3.80;99.90
16118;DHT22;8163;50.118;5.342;2023-03-12T06:38:57;3.80;99.90
16118;DHT22;8163;50.118;5.342;2023-03-12T06:41:26;3.80;99.90
16118;DHT22;8163;50.118;5.342;2023-03-12T06:43:54;3.90;99.90
16118;DHT22;8163;50.118;5.342;2023-03-12T06:46:22;3.90;99.90
16118;DHT22;8163;50.118;5.342;2023-03-12T06:48:50;3.90;99.90
16118;DHT22;8163;50.118;5.342;2023-03-12T06:51:19;3.90;99.90
16118;DHT22;8163;50.118;5.342;2023-03-12T06:53:46;3.90;99.90
16118;DHT22;8163;50.118;5.342;2023-03-12T06:56:15;4.00;99.90
16118;DHT22;8163;50.118;5.342;2023-03-12T06:58:42;4.00;99.90
16118;DHT22;8163;50.118;5.342;2023-03-12T07:01:09;4.00;99.90
16118;DHT22;8163;50.118;5.342;2023-03-12T07:03:40;4.00;99.90
16118;DHT22;8163;50.118;5.342;2023-03-12T07:06:12;4.00;99.90
16118;DHT22;8163;50.118;5.342;2023-03-12T07:08:39;4.10;99.90
16118;DHT22;8163;50.118;5.342;2023-03-12T07:11:06;4.10;99.90
16118;DHT22;8163;50.118;5.342;2023-03-12T07:13:33;4.20;99.90
16118;DHT22;8163;50.118;5.342;2023-03-12T07:16:01;4.20;99.90
16118;DHT22;8163;50.118;5.342;2023-03-12T07:20:55;4.20;99.90
16118;DHT22;8163;50.118;5.342;2023-03-12T07:23:23;4.30;99.90
16118;DHT22;8163;50.118;5.342;2023-03-12T07:25:50;4.30;99.90
16118;DHT22;8163;50.118;5.342;2023-03-12T07:28:18;4.30;99.90
16118;DHT22;8163;50.118;5.342;2023-03-12T07:30:45;4.40;99.90
16118;DHT22;8163;50.118;5.342;2023-03-12T07:33:16;4.50;99.90
16118;DHT22;8163;50.118;5.342;2023-03-12T07:35:46;4.50;99.90
16118;DHT22;8163;50.118;5.342;2023-03-12T07:38:15;4.60;99.90
16118;DHT22;8163;50.118;5.342;2023-03-12T07:40:50;4.60;99.90
16118;DHT22;8163;50.118;5.342;2023-03-12T07:43:26;4.70;99.90
16118;DHT22;8163;50.118;5.342;2023-03-12T07:45:53;4.70;99.90
16118;DHT22;8163;50.118;5.342;2023-03-12T07:48:20;4.80;99.90
16118;DHT22;8163;50.118;5.342;2023-03-12T07:53:34;4.90;99.90
16118;DHT22;8163;50.118;5.342;2023-03-12T07:56:02;5.00;99.90
16118;DHT22;8163;50.118;5.342;2023-03-12T07:58:29;5.00;99.90
16118;DHT22;8163;50.118;5.342;2023-03-12T08:00:56;5.10;99.90
16118;DHT22;8163;50.118;5.342;2023-03-12T08:03:23;5.10;99.90
16118;DHT22;8163;50.118;5.342;2023-03-12T08:05:57;5.20;99.90
16118;DHT22;8163;50.118;5.342;2023-03-12T08:08:24;5.40;99.90
16118;DHT22;8163;50.118;5.342;2023-03-12T08:10:53;5.60;99.90
16118;DHT22;8163;50.118;5.342;2023-03-12T08:13:20;5.70;99.90
16118;DHT22;8163;50.118;5.342;2023-03-12T08:15:49;5.80;99.90
16118;DHT22;8163;50.118;5.342;2023-03-12T08:18:17;6.00;99.90
16118;DHT22;8163;50.118;5.342;2023-03-12T08:20:45;6.00;99.90
16118;DHT22;8163;50.118;5.342;2023-03-12T08:23:12;6.30;99.90
16118;DHT22;8163;50.118;5.342;2023-03-12T08:25:39;6.60;99.90
16118;DHT22;8163;50.118;5.342;2023-03-12T08:28:07;6.60;99.90
16118;DHT22;8163;50.118;5.342;2023-03-12T08:30:34;6.70;99.90
16118;DHT22;8163;50.118;5.342;2023-03-12T08:33:01;6.70;99.90
16118;DHT22;8163;50.118;5.342;2023-03-12T08:35:28;6.60;99.90
16118;DHT22;8163;50.118;5.342;2023-03-12T08:37:55;6.60;99.90
16118;DHT22;8163;50.118;5.342;2023-03-12T08:40:22;6.60;99.90
16118;DHT22;8163;50.118;5.342;2023-03-12T08:42:50;6.60;99.90
16118;DHT22;8163;50.118;5.342;2023-03-12T08:45:19;6.60;99.90
16118;DHT22;8163;50.118;5.342;2023-03-12T08:47:47;6.60;99.90
16118;DHT22;8163;50.118;5.342;2023-03-12T08:50:15;6.60;99.90
16118;DHT22;8163;50.118;5.342;2023-03-12T08:52:43;6.60;99.90
16118;DHT22;8163;50.118;5.342;2023-03-12T08:55:10;6.50;99.90
16118;DHT22;8163;50.118;5.342;2023-03-12T08:57:38;6.50;99.90
16118;DHT22;8163;50.118;5.342;2023-03-12T09:00:06;6.60;99.90
16118;DHT22;8163;50.118;5.342;2023-03-12T09:02:38;6.50;99.90
16118;DHT22;8163;50.118;5.342;2023-03-12T09:05:06;6.50;99.90
16118;DHT22;8163;50.118;5.342;2023-03-12T09:07:33;6.50;99.90
16118;DHT22;8163;50.118;5.342;2023-03-12T09:10:01;6.50;99.90
16118;DHT22;8163;50.118;5.342;2023-03-12T09:12:29;6.50;99.90
16118;DHT22;8163;50.118;5.342;2023-03-12T09:14:56;6.50;99.90
16118;DHT22;8163;50.118;5.342;2023-03-12T09:17:23;6.50;99.90
16118;DHT22;8163;50.118;5.342;2023-03-12T09:19:51;6.50;99.90
16118;DHT22;8163;50.118;5.342;2023-03-12T09:22:18;6.50;99.90
16118;DHT22;8163;50.118;5.342;2023-03-12T09:24:45;6.60;99.90
16118;DHT22;8163;50.118;5.342;2023-03-12T09:27:12;6.60;99.90
16118;DHT22;8163;50.118;5.342;2023-03-12T09:29:39;6.70;99.90
16118;DHT22;8163;50.118;5.342;2023-03-12T09:32:06;6.70;99.90
16118;DHT22;8163;50.118;5.342;2023-03-12T09:34:36;6.80;99.90
16118;DHT22;8163;50.118;5.342;2023-03-12T09:37:05;6.80;99.90
16118;DHT22;8163;50.118;5.342;2023-03-12T09:39:32;6.90;99.90
16118;DHT22;8163;50.118;5.342;2023-03-12T09:41:59;6.90;99.90
16118;DHT22;8163;50.118;5.342;2023-03-12T09:44:33;6.90;99.90
16118;DHT22;8163;50.118;5.342;2023-03-12T09:47:04;7.00;99.90
16118;DHT22;8163;50.118;5.342;2023-03-12T09:49:36;7.00;99.90
16118;DHT22;8163;50.118;5.342;2023-03-12T09:52:16;7.00;99.90
16118;DHT22;8163;50.118;5.342;2023-03-12T09:54:48;7.10;99.90
16118;DHT22;8163;50.118;5.342;2023-03-12T09:57:21;7.20;99.90
16118;DHT22;8163;50.118;5.342;2023-03-12T09:59:49;7.20;99.90
16118;DHT22;8163;50.118;5.342;2023-03-12T10:02:44;7.20;99.90
16118;DHT22;8163;50.118;5.342;2023-03-12T10:05:18;7.20;99.90
16118;DHT22;8163;50.118;5.342;2023-03-12T10:07:53;7.20;99.90
16118;DHT22;8163;50.118;5.342;2023-03-12T10:10:40;7.30;99.90
16118;DHT22;8163;50.118;5.342;2023-03-12T10:13:21;7.30;99.90
16118;DHT22;8163;50.118;5.342;2023-03-12T10:16:00;7.30;99.90
16118;DHT22;8163;50.118;5.342;2023-03-12T10:18:42;7.30;99.90
16118;DHT22;8163;50.118;5.342;2023-03-12T10:21:19;7.40;99.90
16118;DHT22;8163;50.118;5.342;2023-03-12T10:26:43;7.40;99.90
16118;DHT22;8163;50.118;5.342;2023-03-12T10:29:15;7.40;99.90
16118;DHT22;8163;50.118;5.342;2023-03-12T10:31:49;7.50;99.90
16118;DHT22;8163;50.118;5.342;2023-03-12T10:34:22;7.40;99.90
16118;DHT22;8163;50.118;5.342;2023-03-12T10:36:51;7.40;99.90
16118;DHT22;8163;50.118;5.342;2023-03-12T10:39:22;7.40;99.90
16118;DHT22;8163;50.118;5.342;2023-03-12T10:41:49;7.50;99.90
16118;DHT22;8163;50.118;5.342;2023-03-12T10:44:20;7.50;99.90
16118;DHT22;8163;50.118;5.342;2023-03-12T10:47:03;7.50;99.90
16118;DHT22;8163;50.118;5.342;2023-03-12T10:49:33;7.60;99.90
16118;DHT22;8163;50.118;5.342;2023-03-12T10:52:04;7.60;99.90
16118;DHT22;8163;50.118;5.342;2023-03-12T10:54:35;7.60;99.90
16118;DHT22;8163;50.118;5.342;2023-03-12T10:57:03;7.60;99.90
16118;DHT22;8163;50.118;5.342;2023-03-12T10:59:33;7.60;99.90
16118;DHT22;8163;50.118;5.342;2023-03-12T11:02:01;7.60;99.90
16118;DHT22;8163;50.118;5.342;2023-03-12T11:04:29;7.60;99.90
16118;DHT22;8163;50.118;5.342;2023-03-12T11:07:17;7.70;99.90
16118;DHT22;8163;50.118;5.342;2023-03-12T11:10:13;7.70;99.90
16118;DHT22;8163;50.118;5.342;2023-03-12T11:12:50;7.80;99.90
16118;DHT22;8163;50.118;5.342;2023-03-12T11:15:19;7.90;99.90
16118;DHT22;8163;50.118;5.342;2023-03-12T11:17:47;7.90;99.90
16118;DHT22;8163;50.118;5.342;2023-03-12T11:20:31;7.90;99.90
16118;DHT22;8163;50.118;5.342;2023-03-12T11:23:12;7.90;99.90
16118;DHT22;8163;50.118;5.342;2023-03-12T11:25:42;7.90;99.90
16118;DHT22;8163;50.118;5.342;2023-03-12T11:28:20;8.00;99.90
16118;DHT22;8163;50.118;5.342;2023-03-12T11:30:49;8.20;99.90
16118;DHT22;8163;50.118;5.342;2023-03-12T11:33:17;8.30;99.90
16118;DHT22;8163;50.118;5.342;2023-03-12T11:35:51;8.40;99.90
16118;DHT22;8163;50.118;5.342;2023-03-12T11:38:30;8.50;99.90
16118;DHT22;8163;50.118;5.342;2023-03-12T11:41:04;8.60;99.90
16118;DHT22;8163;50.118;5.342;2023-03-12T11:43:48;8.70;99.90
16118;DHT22;8163;50.118;5.342;2023-03-12T11:46:26;8.80;99.90
16118;DHT22;8163;50.118;5.342;2023-03-12T11:49:08;8.80;99.90
16118;DHT22;8163;50.118;5.342;2023-03-12T11:51:44;8.80;99.90
16118;DHT22;8163;50.118;5.342;2023-03-12T11:54:30;9.00;99.90
16118;DHT22;8163;50.118;5.342;2023-03-12T11:57:06;9.10;99.90
16118;DHT22;8163;50.118;5.342;2023-03-12T11:59:48;9.20;99.90
16118;DHT22;8163;50.118;5.342;2023-03-12T12:02:42;9.20;99.90
16118;DHT22;8163;50.118;5.342;2023-03-12T12:05:23;9.20;99.90
16118;DHT22;8163;50.118;5.342;2023-03-12T12:08:05;9.30;99.90
16118;DHT22;8163;50.118;5.342;2023-03-12T12:10:43;9.30;99.90
16118;DHT22;8163;50.118;5.342;2023-03-12T12:13:20;9.20;99.90
16118;DHT22;8163;50.118;5.342;2023-03-12T12:15:56;9.20;99.90
16118;DHT22;8163;50.118;5.342;2023-03-12T12:18:41;9.20;99.90
16118;DHT22;8163;50.118;5.342;2023-03-12T12:21:23;9.20;99.90
16118;DHT22;8163;50.118;5.342;2023-03-12T12:24:00;9.30;99.90
16118;DHT22;8163;50.118;5.342;2023-03-12T12:26:32;9.40;99.90
16118;DHT22;8163;50.118;5.342;2023-03-12T12:29:18;9.50;99.90
16118;DHT22;8163;50.118;5.342;2023-03-12T12:31:50;9.60;99.90
16118;DHT22;8163;50.118;5.342;2023-03-12T12:34:44;9.70;99.90
16118;DHT22;8163;50.118;5.342;2023-03-12T12:37:22;9.80;99.90
16118;DHT22;8163;50.118;5.342;2023-03-12T12:39:57;10.00;99.90
16118;DHT22;8163;50.118;5.342;2023-03-12T12:42:31;10.00;99.90
16118;DHT22;8163;50.118;5.342;2023-03-12T12:45:01;10.10;99.90
16118;DHT22;8163;50.118;5.342;2023-03-12T12:47:37;10.10;99.90
16118;DHT22;8163;50.118;5.342;2023-03-12T12:50:10;10.10;99.90
16118;DHT22;8163;50.118;5.342;2023-03-12T12:52:40;10.00;99.90
16118;DHT22;8163;50.118;5.342;2023-03-12T12:55:15;9.90;99.90
16118;DHT22;8163;50.118;5.342;2023-03-12T12:57:48;9.80;99.90
16118;DHT22;8163;50.118;5.342;2023-03-12T13:00:46;9.60;99.90
16118;DHT22;8163;50.118;5.342;2023-03-12T13:03:16;9.40;99.90
16118;DHT22;8163;50.118;5.342;2023-03-12T13:05:52;9.30;99.90
16118;DHT22;8163;50.118;5.342;2023-03-12T13:08:35;9.20;99.90
16118;DHT22;8163;50.118;5.342;2023-03-12T13:11:04;9.20;99.90
16118;DHT22;8163;50.118;5.342;2023-03-12T13:13:32;9.30;99.90
16118;DHT22;8163;50.118;5.342;2023-03-12T13:16:31;9.50;99.90
16118;DHT22;8163;50.118;5.342;2023-03-12T13:19:00;10.10;99.90
16118;DHT22;8163;50.118;5.342;2023-03-12T13:21:34;10.80;99.90
16118;DHT22;8163;50.118;5.342;2023-03-12T13:24:13;11.10;99.90
16118;DHT22;8163;50.118;5.342;2023-03-12T13:26:50;11.10;99.90
16118;DHT22;8163;50.118;5.342;2023-03-12T13:29:35;11.00;99.90
16118;DHT22;8163;50.118;5.342;2023-03-12T13:32:04;10.90;99.90
16118;DHT22;8163;50.118;5.342;2023-03-12T13:34:45;10.70;99.90
16118;DHT22;8163;50.118;5.342;2023-03-12T13:37:28;10.50;99.90
16118;DHT22;8163;50.118;5.342;2023-03-12T13:39:59;10.30;99.90
16118;DHT22;8163;50.118;5.342;2023-03-12T13:42:38;10.10;99.90
16118;DHT22;8163;50.118;5.342;2023-03-12T13:45:25;10.00;99.90
16118;DHT22;8163;50.118;5.342;2023-03-12T13:47:58;9.90;99.90
16118;DHT22;8163;50.118;5.342;2023-03-12T13:50:26;9.80;99.90
16118;DHT22;8163;50.118;5.342;2023-03-12T13:53:05;9.90;99.90
16118;DHT22;8163;50.118;5.342;2023-03-12T13:55:35;10.10;99.90
16118;DHT22;8163;50.118;5.342;2023-03-12T14:36:00;10.50;99.90
16118;DHT22;8163;50.118;5.342;2023-03-12T14:38:31;10.60;99.90
16118;DHT22;8163;50.118;5.342;2023-03-12T14:41:02;10.60;99.90
16118;DHT22;8163;50.118;5.342;2023-03-12T14:43:31;10.60;99.90
16118;DHT22;8163;50.118;5.342;2023-03-12T14:46:00;10.60;99.90
16118;DHT22;8163;50.118;5.342;2023-03-12T14:48:29;10.60;99.90
16118;DHT22;8163;50.118;5.342;2023-03-12T14:50:58;10.50;99.90
16118;DHT22;8163;50.118;5.342;2023-03-12T14:53:28;10.50;99.90
16118;DHT22;8163;50.118;5.342;2023-03-12T14:56:04;10.40;99.90
16118;DHT22;8163;50.118;5.342;2023-03-12T14:58:32;10.50;99.90
16118;DHT22;8163;50.118;5.342;2023-03-12T15:01:01;10.60;99.90
16118;DHT22;8163;50.118;5.342;2023-03-12T15:03:39;10.80;99.90
16118;DHT22;8163;50.118;5.342;2023-03-12T15:06:14;10.90;99.90
16118;DHT22;8163;50.118;5.342;2023-03-12T15:08:43;11.00;99.90
16118;DHT22;8163;50.118;5.342;2023-03-12T15:11:10;11.00;99.90
16118;DHT22;8163;50.118;5.342;2023-03-12T15:13:38;11.10;99.90
16118;DHT22;8163;50.118;5.342;2023-03-12T15:16:06;11.10;99.90
16118;DHT22;8163;50.118;5.342;2023-03-12T15:18:33;11.00;99.90
16118;DHT22;8163;50.118;5.342;2023-03-12T15:21:01;11.00;99.90
16118;DHT22;8163;50.118;5.342;2023-03-12T15:23:32;10.90;99.90
16118;DHT22;8163;50.118;5.342;2023-03-12T15:26:11;10.80;99.90
16118;DHT22;8163;50.118;5.342;2023-03-12T15:28:39;10.60;99.90
16118;DHT22;8163;50.118;5.342;2023-03-12T15:31:09;10.50;99.90
16118;DHT22;8163;50.118;5.342;2023-03-12T15:33:37;10.50;99.90
16118;DHT22;8163;50.118;5.342;2023-03-12T15:38:54;10.50;99.90
16118;DHT22;8163;50.118;5.342;2023-03-12T15:41:26;10.50;99.90
16118;DHT22;8163;50.118;5.342;2023-03-12T15:43:55;10.50;99.90
16118;DHT22;8163;50.118;5.342;2023-03-12T15:46:23;10.50;99.90
16118;DHT22;8163;50.118;5.342;2023-03-12T15:48:53;10.40;99.90
16118;DHT22;8163;50.118;5.342;2023-03-12T15:51:32;10.40;99.90
16118;DHT22;8163;50.118;5.342;2023-03-12T15:54:04;10.30;99.90
16118;DHT22;8163;50.118;5.342;2023-03-12T15:56:33;10.30;99.90
16118;DHT22;8163;50.118;5.342;2023-03-12T15:59:19;10.30;99.90
16118;DHT22;8163;50.118;5.342;2023-03-12T16:01:49;10.30;99.90
16118;DHT22;8163;50.118;5.342;2023-03-12T16:04:17;10.20;99.90
16118;DHT22;8163;50.118;5.342;2023-03-12T16:06:44;10.20;99.90
16118;DHT22;8163;50.118;5.342;2023-03-12T16:09:16;10.20;99.90
16118;DHT22;8163;50.118;5.342;2023-03-12T16:11:45;10.20;99.90
16118;DHT22;8163;50.118;5.342;2023-03-12T16:14:17;10.20;99.90
16118;DHT22;8163;50.118;5.342;2023-03-12T16:16:50;10.20;99.90
16118;DHT22;8163;50.118;5.342;2023-03-12T16:19:19;10.30;99.90
16118;DHT22;8163;50.118;5.342;2023-03-12T16:21:47;10.30;99.90
16118;DHT22;8163;50.118;5.342;2023-03-12T16:24:15;10.20;99.90
16118;DHT22;8163;50.118;5.342;2023-03-12T16:26:47;10.20;99.90
16118;DHT22;8163;50.118;5.342;2023-03-12T16:29:16;10.20;99.90
16118;DHT22;8163;50.118;5.342;2023-03-12T16:31:43;10.20;99.90
16118;DHT22;8163;50.118;5.342;2023-03-12T16:34:11;10.20;99.90
16118;DHT22;8163;50.118;5.342;2023-03-12T16:36:38;10.10;99.90
16118;DHT22;8163;50.118;5.342;2023-03-12T16:39:05;10.10;99.90
16118;DHT22;8163;50.118;5.342;2023-03-12T16:41:33;10.10;99.90
16118;DHT22;8163;50.118;5.342;2023-03-12T16:44:01;10.10;99.90
16118;DHT22;8163;50.118;5.342;2023-03-12T16:46:30;10.00;99.90
16118;DHT22;8163;50.118;5.342;2023-03-12T16:48:57;10.00;99.90
16118;DHT22;8163;50.118;5.342;2023-03-12T16:51:25;10.00;99.90
16118;DHT22;8163;50.118;5.342;2023-03-12T16:53:53;10.00;99.90
16118;DHT22;8163;50.118;5.342;2023-03-12T16:56:23;9.90;99.90
16118;DHT22;8163;50.118;5.342;2023-03-12T16:58:52;9.90;99.90
16118;DHT22;8163;50.118;5.342;2023-03-12T17:01:27;9.90;99.90
16118;DHT22;8163;50.118;5.342;2023-03-12T17:03:56;9.80;99.90
16118;DHT22;8163;50.118;5.342;2023-03-12T17:06:24;9.80;99.90
16118;DHT22;8163;50.118;5.342;2023-03-12T17:08:52;9.70;99.90